createdAt,value
2018-12-06T00:02:32.743Z,4.2
2018-12-06T00:07:29.870Z,4.2
2018-12-06T00:12:26.605Z,3.5
2018-12-06T00:17:23.801Z,4.1
2018-12-06T00:22:20.965Z,4.1
2018-12-06T00:27:17.624Z,4.1
2018-12-06T00:32:14.837Z,4
2018-12-06T00:37:11.980Z,4
2018-12-06T00:42:09.081Z,4
2018-12-06T00:47:06.146Z,4
2018-12-06T00:52:03.220Z,4
2018-12-06T00:57:00.127Z,3.7
2018-12-06T01:01:57.165Z,4
2018-12-06T01:06:54.085Z,3.9
2018-12-06T01:11:51.258Z,3.9
2018-12-06T01:16:48.247Z,3.9
2018-12-06T01:21:45.433Z,3.9
2018-12-06T01:26:42.704Z,3.8
2018-12-06T01:31:39.784Z,3.8
2018-12-06T01:36:36.636Z,3.8
2018-12-06T01:41:33.802Z,3.8
2018-12-06T01:46:30.969Z,3.9
2018-12-06T01:51:28.047Z,3.8
2018-12-06T01:56:25.401Z,3.8
2018-12-06T02:01:22.637Z,3.8
2018-12-06T02:06:19.275Z,3.7
2018-12-06T02:11:16.508Z,3.7
2018-12-06T02:16:13.458Z,3.7
2018-12-06T02:21:10.213Z,3.7
2018-12-06T02:26:07.397Z,3.7
2018-12-06T02:31:04.689Z,3.6
2018-12-06T02:36:01.967Z,3.6
2018-12-06T02:40:59.183Z,3.6
2018-12-06T02:45:56.513Z,3.2
2018-12-06T02:50:53.643Z,3.5
2018-12-06T02:55:50.947Z,3.6
2018-12-06T03:00:48.315Z,3.5
2018-12-06T03:05:45.292Z,3.6
2018-12-06T03:10:42.527Z,3.6
2018-12-06T03:15:39.586Z,3.6
2018-12-06T03:20:36.735Z,3.5
2018-12-06T03:25:34.158Z,3.5
2018-12-06T03:30:31.266Z,3.5
2018-12-06T03:35:28.546Z,3.5
2018-12-06T03:40:25.754Z,3.5
2018-12-06T03:45:22.650Z,3.5
2018-12-06T03:50:19.773Z,3.4
2018-12-06T03:55:16.745Z,3.3
2018-12-06T04:00:14.060Z,2.9
2018-12-06T04:05:11.200Z,3.3
2018-12-06T04:10:08.115Z,3.2
2018-12-06T04:15:05.121Z,3.2
2018-12-06T04:20:02.401Z,2.6
2018-12-06T04:24:59.664Z,3.2
2018-12-06T04:29:56.759Z,3.2
2018-12-06T04:34:53.592Z,3.2
2018-12-06T04:39:50.781Z,3.1
2018-12-06T04:44:47.298Z,3.2
2018-12-06T04:49:44.629Z,3.2
2018-12-06T04:54:41.938Z,3.2
2018-12-06T04:59:39.175Z,3.2
2018-12-06T05:04:36.334Z,3.2
2018-12-06T05:09:33.369Z,3.2
2018-12-06T05:14:30.635Z,3.1
2018-12-06T05:19:27.306Z,3.1
2018-12-06T05:24:24.527Z,3.1
2018-12-06T05:29:21.532Z,2.9
2018-12-06T05:34:18.621Z,3.1
2018-12-06T05:39:15.709Z,3.1
2018-12-06T05:44:12.779Z,3.1
2018-12-06T05:49:09.741Z,3.1
2018-12-06T05:54:07.138Z,3.1
2018-12-06T05:59:04.421Z,2.9
2018-12-06T06:04:01.489Z,-2.8
2018-12-06T06:08:58.596Z,3
2018-12-06T06:13:55.702Z,3
2018-12-06T06:18:52.730Z,3
2018-12-06T06:23:50.700Z,3
2018-12-06T06:28:47.810Z,3
2018-12-06T06:33:44.465Z,2.9
2018-12-06T06:38:41.642Z,2.8
2018-12-06T06:43:38.795Z,2.9
2018-12-06T06:48:36.012Z,2.9
2018-12-06T06:53:32.907Z,2.7
2018-12-06T06:58:30.043Z,2.9
2018-12-06T07:03:27.019Z,3
2018-12-06T07:08:24.234Z,3
2018-12-06T07:13:21.414Z,3
2018-12-06T07:18:18.547Z,3
2018-12-06T07:23:15.955Z,2.8
2018-12-06T07:28:13.006Z,3
2018-12-06T07:33:10.154Z,2.9
2018-12-06T07:38:07.183Z,3
2018-12-06T07:43:04.811Z,3
2018-12-06T07:48:01.648Z,2.9
2018-12-06T07:52:59.199Z,2.9
2018-12-06T07:57:56.676Z,2.9
2018-12-06T08:02:53.669Z,2.9
2018-12-06T08:07:50.880Z,2.9
2018-12-06T08:12:47.986Z,2.8
2018-12-06T08:17:44.887Z,2.9
2018-12-06T08:22:41.930Z,2.6
2018-12-06T08:27:39.192Z,3
2018-12-06T08:32:36.236Z,3
2018-12-06T08:37:33.265Z,3.1
2018-12-06T08:42:30.598Z,3.2
2018-12-06T08:47:27.838Z,3.2
2018-12-06T08:52:25.111Z,2.9
2018-12-06T08:57:22.137Z,3.3
2018-12-06T09:02:19.205Z,3.3
2018-12-06T09:07:16.430Z,3.5
2018-12-06T09:12:13.595Z,3.5
2018-12-06T09:17:10.743Z,3.6
2018-12-06T09:22:08.046Z,3.7
2018-12-06T09:27:05.518Z,3.8
2018-12-06T09:32:02.615Z,3.8
2018-12-06T09:36:59.560Z,3.8
2018-12-06T09:41:56.021Z,3.9
2018-12-06T09:46:53.288Z,4
2018-12-06T09:51:50.276Z,4.1
2018-12-06T09:56:48.275Z,4.2
2018-12-06T10:01:45.361Z,4.3
2018-12-06T10:06:42.558Z,4.6
2018-12-06T10:11:40.012Z,4.8
2018-12-06T10:16:37.160Z,4.9
2018-12-06T10:21:34.435Z,5.2
2018-12-06T10:26:31.610Z,5.3
2018-12-06T10:31:28.937Z,5.4
2018-12-06T10:36:26.087Z,5.5
2018-12-06T10:41:23.510Z,5.5
2018-12-06T10:46:20.901Z,5.6
2018-12-06T10:51:18.159Z,5.6
2018-12-06T10:56:16.025Z,5.6
2018-12-06T11:01:12.992Z,5.6
2018-12-06T11:06:10.306Z,5.7
2018-12-06T11:11:07.730Z,5.8
2018-12-06T11:16:04.966Z,5.9
2018-12-06T11:21:02.204Z,6
2018-12-06T11:25:59.533Z,6.2
2018-12-06T11:30:56.744Z,6.3
2018-12-06T11:35:53.937Z,6.4
2018-12-06T11:40:51.196Z,6.5
2018-12-06T11:45:48.523Z,6.7
2018-12-06T11:50:45.533Z,6.8
2018-12-06T11:55:42.713Z,6.3
2018-12-06T12:00:40.262Z,6.5
2018-12-06T12:05:37.595Z,7.1
2018-12-06T12:10:34.695Z,7.3
2018-12-06T12:15:31.462Z,7.4
2018-12-06T12:20:29.355Z,7.5
2018-12-06T12:25:26.676Z,7.5
2018-12-06T12:30:23.877Z,7.6
2018-12-06T12:35:21.099Z,7.5
2018-12-06T12:40:18.545Z,7.6
2018-12-06T12:45:15.817Z,7.7
2018-12-06T12:50:13.017Z,7.7
2018-12-06T12:55:10.628Z,7.6
2018-12-06T13:00:07.634Z,7.3
2018-12-06T13:05:04.820Z,7.1
2018-12-06T13:10:01.374Z,7
2018-12-06T13:14:58.457Z,6.9
2018-12-06T13:19:55.450Z,6.8
2018-12-06T13:24:52.751Z,6.9
2018-12-06T13:29:49.787Z,6.9
2018-12-06T13:34:46.994Z,6.8
2018-12-06T13:39:44.271Z,6.3
2018-12-06T13:44:41.374Z,5.7
2018-12-06T13:49:38.541Z,6.7
2018-12-06T13:54:35.717Z,6.1
2018-12-06T13:59:32.834Z,6.7
2018-12-06T14:04:29.981Z,6.7
2018-12-06T14:09:27.101Z,6.5
2018-12-06T14:14:24.100Z,6.4
2018-12-06T14:19:21.316Z,6.4
2018-12-06T14:24:18.359Z,6.3
2018-12-06T14:29:14.996Z,6.4
2018-12-06T14:34:12.173Z,6.4
2018-12-06T14:39:09.984Z,6.3
2018-12-06T14:44:07.588Z,6.3
2018-12-06T14:49:04.842Z,6.3
2018-12-06T14:54:02.626Z,6.2
2018-12-06T14:58:59.653Z,6.2
2018-12-06T15:03:56.648Z,6.1
2018-12-06T15:08:53.408Z,6.2
2018-12-06T15:13:50.469Z,6.2
2018-12-06T15:18:47.636Z,5.4
2018-12-06T15:23:44.543Z,5.9
2018-12-06T15:28:41.621Z,6
2018-12-06T15:33:38.539Z,6.1
2018-12-06T15:38:35.588Z,5.9
2018-12-06T15:43:32.495Z,6
2018-12-06T15:48:29.713Z,5.9
2018-12-06T15:53:27.253Z,5.9
2018-12-06T15:58:24.163Z,5.9
2018-12-06T16:03:21.331Z,5.8
2018-12-06T16:08:17.703Z,5.8
2018-12-06T16:13:14.993Z,5.7
2018-12-06T16:18:11.724Z,5.6
2018-12-06T16:23:09.090Z,5.6
2018-12-06T16:28:06.340Z,5.5
2018-12-06T16:33:04.079Z,5.4
2018-12-06T16:38:01.236Z,5.4
2018-12-06T16:42:58.311Z,5.4
2018-12-06T16:47:54.938Z,5.4
2018-12-06T16:52:52.518Z,5.4
2018-12-06T16:57:49.784Z,5.3
2018-12-06T17:02:46.985Z,5.3
2018-12-06T17:07:44.073Z,5.3
2018-12-06T17:12:41.137Z,5.2
2018-12-06T17:17:38.296Z,5.2
2018-12-06T17:22:35.415Z,5.2
2018-12-06T17:27:32.632Z,5.2
2018-12-06T17:32:29.884Z,5.2
2018-12-06T17:37:27.114Z,5.1
2018-12-06T17:42:24.154Z,4.7
2018-12-06T17:47:21.402Z,5
2018-12-06T17:52:18.405Z,5
2018-12-06T17:57:15.782Z,5
2018-12-06T18:02:12.733Z,4.9
2018-12-06T18:07:09.566Z,4.9
2018-12-06T18:12:06.728Z,4.7
2018-12-06T18:17:03.834Z,4.7
2018-12-06T18:22:01.389Z,4.7
2018-12-06T18:26:57.907Z,4.6
2018-12-06T18:31:54.887Z,4.7
2018-12-06T18:36:51.543Z,4.7
2018-12-06T18:41:48.430Z,4.6
2018-12-06T18:46:45.891Z,4.6
2018-12-06T18:51:42.991Z,4.6
2018-12-06T18:56:40.312Z,4.6
2018-12-06T19:01:37.800Z,4.4
2018-12-06T19:06:34.326Z,4.5
2018-12-06T19:11:31.338Z,4.5
2018-12-06T19:16:28.455Z,4.4
2018-12-06T19:21:25.622Z,4.4
2018-12-06T19:26:22.883Z,4.4
2018-12-06T19:31:20.128Z,4.3
2018-12-06T19:36:17.190Z,4.3
2018-12-06T19:41:14.302Z,4.2
2018-12-06T19:46:11.729Z,4.2
2018-12-06T19:51:08.925Z,4.1
2018-12-06T19:56:06.804Z,4.1
2018-12-06T20:01:03.975Z,4
2018-12-06T20:06:00.949Z,4
2018-12-06T20:10:58.150Z,3.8
2018-12-06T20:15:55.334Z,3.9
2018-12-06T20:20:52.453Z,3.8
2018-12-06T20:25:49.567Z,3.6
2018-12-06T20:30:46.532Z,3.6
2018-12-06T20:35:43.660Z,3.7
2018-12-06T20:40:41.000Z,3.7
2018-12-06T20:45:37.856Z,3.6
2018-12-06T20:50:35.169Z,3.7
2018-12-06T20:55:32.487Z,3.7
2018-12-06T21:00:29.426Z,3.6
2018-12-06T21:05:26.248Z,3.7
2018-12-06T21:10:23.352Z,3.6
2018-12-06T21:15:20.270Z,3.6
2018-12-06T21:20:17.401Z,3.6
2018-12-06T21:25:14.507Z,3.6
2018-12-06T21:30:11.800Z,3.6
2018-12-06T21:35:09.064Z,3.6
2018-12-06T21:40:06.285Z,3.5
2018-12-06T21:45:03.261Z,3.4
2018-12-06T21:50:00.650Z,3.3
2018-12-06T21:54:57.762Z,3.3
2018-12-06T21:59:54.963Z,3.4
2018-12-06T22:04:52.431Z,3.3
2018-12-06T22:09:49.530Z,3.2
2018-12-06T22:14:46.424Z,3.2
2018-12-06T22:19:43.294Z,3.1
2018-12-06T22:24:40.641Z,3.1
2018-12-06T22:29:37.797Z,2.7
2018-12-06T22:34:35.106Z,3
2018-12-06T22:39:32.390Z,3
2018-12-06T22:44:29.671Z,2.9
2018-12-06T22:49:26.996Z,3
2018-12-06T22:54:24.069Z,2.9
2018-12-06T22:59:21.634Z,2.8
2018-12-06T23:04:18.811Z,2.8
2018-12-06T23:09:15.905Z,2.8
2018-12-06T23:14:13.206Z,2.8
2018-12-06T23:19:10.315Z,2.7
2018-12-06T23:24:07.728Z,2.8
2018-12-06T23:29:04.852Z,2.8
2018-12-06T23:34:02.077Z,2.7
2018-12-06T23:38:59.147Z,2.7
2018-12-06T23:43:56.113Z,2.5
2018-12-06T23:48:53.416Z,2.5
2018-12-06T23:53:50.717Z,2.5
2018-12-06T23:58:48.190Z,2.5
